createdAt,value
2023-01-08T00:01:19.582Z,9.50
2023-01-08T00:03:47.234Z,9.60
2023-01-08T00:06:18.496Z,9.70
2023-01-08T00:08:46.327Z,9.80
2023-01-08T00:11:14.060Z,9.70
2023-01-08T00:13:43.384Z,9.70
2023-01-08T00:16:15.153Z,9.70
2023-01-08T00:18:43.737Z,9.80
2023-01-08T00:21:11.776Z,9.80
2023-01-08T00:23:39.558Z,9.70
2023-01-08T00:26:09.645Z,9.70
2023-01-08T00:28:37.437Z,9.80
2023-01-08T00:31:06.654Z,9.90
2023-01-08T00:33:36.197Z,10.00
2023-01-08T00:36:12.953Z,9.90
2023-01-08T00:38:40.282Z,9.90
2023-01-08T00:41:09.763Z,9.90
2023-01-08T00:43:37.327Z,9.80
2023-01-08T00:46:05.575Z,9.90
2023-01-08T00:48:37.555Z,9.90
2023-01-08T00:51:07.794Z,9.90
2023-01-08T00:53:35.210Z,10.00
2023-01-08T00:56:08.839Z,10.00
2023-01-08T00:58:36.723Z,9.80
2023-01-08T01:01:13.168Z,9.50
2023-01-08T01:03:41.841Z,9.40
2023-01-08T01:06:11.109Z,9.50
2023-01-08T01:08:38.614Z,9.60
2023-01-08T01:11:23.664Z,9.60
2023-01-08T01:13:52.466Z,9.70
2023-01-08T01:16:20.060Z,9.80
2023-01-08T01:18:48.187Z,9.90
2023-01-08T01:21:28.295Z,9.80
2023-01-08T01:24:02.337Z,9.80
2023-01-08T01:26:30.543Z,9.80
2023-01-08T01:28:59.819Z,10.00
2023-01-08T01:31:29.712Z,10.00
2023-01-08T01:33:57.228Z,10.00
2023-01-08T01:36:26.589Z,10.00
2023-01-08T01:38:56.584Z,10.00
2023-01-08T01:41:39.519Z,9.80
2023-01-08T01:44:34.683Z,9.80
2023-01-08T01:47:26.937Z,9.80
2023-01-08T01:50:00.163Z,9.60
2023-01-08T01:52:30.315Z,9.50
2023-01-08T01:54:59.248Z,9.40
2023-01-08T01:57:26.828Z,9.00
2023-01-08T01:59:56.639Z,8.90
2023-01-08T02:02:24.054Z,9.00
2023-01-08T02:04:52.249Z,9.00
2023-01-08T02:07:50.848Z,9.10
2023-01-08T02:10:32.203Z,8.90
2023-01-08T02:13:14.900Z,8.80
2023-01-08T02:15:55.828Z,8.40
2023-01-08T02:18:49.993Z,8.20
2023-01-08T02:21:31.160Z,8.30
2023-01-08T02:23:58.409Z,8.40
2023-01-08T02:26:25.798Z,8.50
2023-01-08T02:28:57.209Z,8.20
2023-01-08T02:31:27.166Z,8.00
2023-01-08T02:33:55.491Z,8.10
2023-01-08T02:36:30.645Z,8.20
2023-01-08T02:39:02.271Z,8.00
2023-01-08T02:41:49.910Z,8.10
2023-01-08T02:44:26.407Z,8.30
2023-01-08T02:46:56.343Z,8.10
2023-01-08T02:49:30.405Z,8.10
2023-01-08T02:52:01.007Z,7.90
2023-01-08T02:54:32.642Z,8.00
2023-01-08T02:57:12.694Z,7.80
2023-01-08T02:59:43.224Z,8.00
2023-01-08T03:02:12.335Z,8.00
2023-01-08T03:04:51.301Z,8.00
2023-01-08T03:07:18.660Z,8.10
2023-01-08T03:09:48.216Z,8.10
2023-01-08T03:12:27.770Z,8.20
2023-01-08T03:15:06.418Z,8.30
2023-01-08T03:17:43.561Z,8.30
2023-01-08T03:20:18.422Z,8.30
2023-01-08T03:22:51.233Z,8.20
2023-01-08T03:25:21.431Z,7.70
2023-01-08T03:27:55.031Z,7.70
2023-01-08T03:30:30.858Z,7.80
2023-01-08T03:33:01.448Z,8.00
2023-01-08T03:35:31.833Z,8.00
2023-01-08T03:38:08.885Z,8.00
2023-01-08T03:40:41.122Z,8.00
2023-01-08T03:43:08.794Z,7.70
2023-01-08T03:45:43.901Z,7.30
2023-01-08T03:48:12.566Z,7.50
2023-01-08T03:50:40.831Z,7.80
2023-01-08T03:53:10.286Z,7.80
2023-01-08T03:55:38.750Z,7.90
2023-01-08T03:58:05.972Z,8.00
2023-01-08T04:00:36.879Z,8.00
2023-01-08T04:03:06.216Z,7.80
2023-01-08T04:05:33.905Z,7.40
2023-01-08T04:08:02.396Z,7.40
2023-01-08T04:10:29.759Z,7.50
2023-01-08T04:13:04.564Z,7.60
2023-01-08T04:15:36.863Z,7.40
2023-01-08T04:18:06.643Z,7.40
2023-01-08T04:20:34.608Z,7.50
2023-01-08T04:23:02.300Z,7.60
2023-01-08T04:25:29.661Z,7.50
2023-01-08T04:27:57.199Z,7.50
2023-01-08T04:30:31.251Z,7.50
2023-01-08T04:32:59.221Z,7.60
2023-01-08T04:35:26.566Z,7.70
2023-01-08T04:37:54.694Z,7.70
2023-01-08T04:40:22.958Z,7.50
2023-01-08T04:42:50.921Z,7.50
2023-01-08T04:45:25.681Z,7.10
2023-01-08T04:47:59.384Z,7.20
2023-01-08T04:50:27.324Z,7.40
2023-01-08T04:52:54.721Z,7.50
2023-01-08T04:55:22.547Z,7.40
2023-01-08T04:57:50.251Z,7.20
2023-01-08T05:00:21.897Z,7.20
2023-01-08T05:02:51.907Z,7.30
2023-01-08T05:05:19.312Z,7.50
2023-01-08T05:07:47.350Z,7.60
2023-01-08T05:10:14.742Z,7.70
2023-01-08T05:12:42.949Z,7.80
2023-01-08T05:15:10.671Z,7.80
2023-01-08T05:17:38.724Z,7.50
2023-01-08T05:20:08.654Z,7.40
2023-01-08T05:22:36.330Z,7.20
2023-01-08T05:25:06.505Z,7.20
2023-01-08T05:27:33.894Z,7.40
2023-01-08T05:30:01.492Z,7.50
2023-01-08T05:32:28.807Z,7.30
2023-01-08T05:34:56.315Z,7.00
2023-01-08T05:37:24.561Z,7.00
2023-01-08T05:39:51.816Z,7.20
2023-01-08T05:42:19.226Z,7.20
2023-01-08T05:44:46.611Z,7.20
2023-01-08T05:47:14.020Z,7.30
2023-01-08T05:49:41.617Z,7.20
2023-01-08T05:52:08.935Z,7.00
2023-01-08T05:54:36.222Z,6.80
2023-01-08T05:57:04.937Z,6.70
2023-01-08T05:59:32.189Z,6.80
2023-01-08T06:02:00.385Z,6.90
2023-01-08T06:04:27.771Z,7.00
2023-01-08T06:06:55.442Z,7.00
2023-01-08T06:09:23.163Z,6.80
2023-01-08T06:11:53.149Z,6.90
2023-01-08T06:14:20.412Z,7.00
2023-01-08T06:16:47.688Z,7.20
2023-01-08T06:19:15.047Z,7.20
2023-01-08T06:21:43.072Z,7.30
2023-01-08T06:24:10.482Z,7.20
2023-01-08T06:26:38.091Z,6.80
2023-01-08T06:29:06.038Z,6.40
2023-01-08T06:31:33.832Z,6.50
2023-01-08T06:34:01.373Z,6.50
2023-01-08T06:36:29.158Z,6.50
2023-01-08T06:38:56.558Z,6.70
2023-01-08T06:41:25.036Z,6.90
2023-01-08T06:43:52.335Z,7.00
2023-01-08T06:46:20.390Z,7.00
2023-01-08T06:48:48.159Z,7.00
2023-01-08T06:51:16.149Z,6.90
2023-01-08T06:53:44.496Z,6.80
2023-01-08T06:56:12.039Z,6.60
2023-01-08T06:58:39.821Z,6.60
2023-01-08T07:01:07.840Z,6.80
2023-01-08T07:03:35.202Z,7.00
2023-01-08T07:06:03.955Z,7.00
2023-01-08T07:08:32.015Z,7.10
2023-01-08T07:11:06.371Z,7.10
2023-01-08T07:13:33.680Z,7.20
2023-01-08T07:16:12.756Z,7.30
2023-01-08T07:18:40.721Z,7.00
2023-01-08T07:21:08.738Z,7.20
2023-01-08T07:23:42.136Z,7.30
2023-01-08T07:26:09.926Z,7.50
2023-01-08T07:28:37.771Z,7.50
2023-01-08T07:31:10.730Z,7.80
2023-01-08T07:33:38.319Z,7.90
2023-01-08T07:36:09.229Z,8.00
2023-01-08T07:38:36.694Z,8.10
2023-01-08T07:41:05.165Z,8.20
2023-01-08T07:43:33.571Z,8.30
2023-01-08T07:46:04.581Z,8.30
2023-01-08T07:48:32.724Z,8.10
2023-01-08T07:51:06.125Z,7.90
2023-01-08T07:53:34.105Z,7.90
2023-01-08T07:56:07.419Z,8.20
2023-01-08T07:58:35.707Z,8.40
2023-01-08T08:01:08.411Z,8.50
2023-01-08T08:03:35.887Z,8.60
2023-01-08T08:06:03.517Z,8.60
2023-01-08T08:08:30.907Z,8.60
2023-01-08T08:10:58.120Z,8.90
2023-01-08T08:13:26.954Z,9.20
2023-01-08T08:15:54.418Z,9.40
2023-01-08T08:18:23.132Z,9.60
2023-01-08T08:20:52.296Z,9.70
2023-01-08T08:23:19.573Z,9.60
2023-01-08T08:25:47.007Z,9.60
2023-01-08T08:28:14.426Z,9.40
2023-01-08T08:30:45.468Z,9.20
2023-01-08T08:33:13.108Z,9.20
2023-01-08T08:35:41.329Z,9.10
2023-01-08T08:38:08.843Z,9.00
2023-01-08T08:40:36.995Z,9.10
2023-01-08T08:43:05.807Z,9.20
2023-01-08T08:45:36.093Z,9.50
2023-01-08T08:48:07.318Z,9.80
2023-01-08T08:50:35.701Z,10.10
2023-01-08T08:53:05.914Z,10.50
2023-01-08T08:55:34.216Z,10.90
2023-01-08T08:58:08.194Z,11.10
2023-01-08T09:00:38.076Z,11.40
2023-01-08T09:03:07.030Z,11.40
2023-01-08T09:05:37.583Z,11.50
2023-01-08T09:08:05.372Z,11.70
2023-01-08T09:10:32.753Z,11.90
2023-01-08T09:13:00.361Z,12.20
2023-01-08T09:15:30.411Z,12.80
2023-01-08T09:17:58.459Z,13.10
2023-01-08T09:20:27.812Z,13.60
2023-01-08T09:22:55.209Z,14.30
2023-01-08T09:25:23.271Z,15.40
2023-01-08T09:28:02.574Z,16.70
2023-01-08T09:30:33.710Z,18.00
2023-01-08T09:33:04.166Z,18.70
2023-01-08T09:35:33.416Z,19.70
2023-01-08T09:38:01.639Z,20.50
2023-01-08T09:40:43.671Z,21.70
2023-01-08T09:43:18.284Z,22.50
2023-01-08T09:45:51.440Z,22.80
2023-01-08T09:48:24.599Z,23.30
2023-01-08T09:50:53.007Z,23.80
2023-01-08T09:53:20.757Z,24.10
2023-01-08T09:56:09.294Z,23.90
2023-01-08T09:58:45.540Z,24.20
2023-01-08T10:01:24.547Z,24.90
2023-01-08T10:04:19.080Z,25.60
2023-01-08T10:07:11.614Z,25.30
2023-01-08T10:09:40.450Z,25.60
2023-01-08T10:12:12.319Z,26.10
2023-01-08T10:14:48.216Z,26.30
2023-01-08T10:17:38.012Z,26.60
2023-01-08T10:20:24.712Z,26.60
2023-01-08T10:22:57.293Z,25.70
2023-01-08T10:25:28.185Z,25.80
2023-01-08T10:28:00.536Z,26.20
2023-01-08T10:30:34.067Z,26.80
2023-01-08T10:33:13.648Z,27.00
2023-01-08T10:35:42.655Z,27.00
2023-01-08T10:38:43.581Z,27.50
2023-01-08T10:41:14.015Z,25.50
2023-01-08T10:43:56.300Z,23.10
2023-01-08T10:46:29.098Z,21.40
2023-01-08T10:49:00.678Z,21.00
2023-01-08T10:51:32.777Z,21.70
2023-01-08T10:54:13.490Z,23.20
2023-01-08T10:56:45.602Z,25.00
2023-01-08T10:59:20.788Z,26.30
2023-01-08T11:01:51.061Z,26.70
2023-01-08T11:04:37.054Z,26.70
2023-01-08T11:07:08.043Z,26.00
2023-01-08T11:09:47.938Z,26.70
2023-01-08T11:12:27.352Z,26.70
2023-01-08T11:14:54.935Z,26.50
2023-01-08T11:17:26.827Z,25.20
2023-01-08T11:19:55.887Z,23.10
2023-01-08T11:22:25.766Z,21.80
2023-01-08T11:24:55.117Z,21.40
2023-01-08T11:27:25.768Z,21.70
2023-01-08T11:30:24.748Z,21.10
2023-01-08T11:33:10.265Z,21.10
2023-01-08T11:35:42.723Z,21.00
2023-01-08T11:38:13.135Z,20.50
2023-01-08T11:41:27.934Z,19.40
2023-01-08T11:44:07.382Z,18.40
2023-01-08T11:46:46.887Z,18.00
2023-01-08T11:49:46.066Z,17.80
2023-01-08T11:52:45.796Z,17.60
2023-01-08T11:55:35.000Z,17.20
2023-01-08T11:58:26.184Z,16.60
2023-01-08T12:01:06.428Z,16.30
2023-01-08T12:03:46.787Z,16.20
2023-01-08T12:06:28.831Z,16.00
2023-01-08T12:09:22.081Z,16.00
2023-01-08T12:12:02.322Z,16.00
2023-01-08T12:15:02.819Z,16.10
2023-01-08T12:17:43.484Z,16.10
2023-01-08T12:20:32.715Z,16.10
2023-01-08T12:23:30.557Z,16.00
2023-01-08T12:26:16.178Z,16.00
2023-01-08T12:29:02.742Z,16.10
2023-01-08T12:31:35.960Z,16.00
2023-01-08T12:34:30.527Z,15.90
2023-01-08T12:37:10.238Z,16.10
2023-01-08T12:40:07.888Z,16.10
2023-01-08T12:42:46.729Z,16.00
2023-01-08T12:45:28.963Z,15.80
2023-01-08T12:48:09.607Z,15.80
2023-01-08T12:51:18.388Z,15.60
2023-01-08T12:53:58.222Z,15.60
2023-01-08T12:56:33.718Z,15.30
2023-01-08T12:59:41.857Z,15.20
2023-01-08T13:02:37.613Z,15.00
2023-01-08T13:05:20.603Z,15.00
2023-01-08T13:07:57.669Z,15.00
2023-01-08T13:10:41.850Z,15.10
2023-01-08T13:13:50.783Z,15.10
2023-01-08T13:16:24.610Z,15.10
2023-01-08T13:18:59.279Z,15.20
2023-01-08T13:21:39.325Z,15.30
2023-01-08T13:24:29.049Z,15.30
2023-01-08T13:26:57.703Z,15.40
2023-01-08T13:29:37.458Z,15.30
2023-01-08T13:32:23.444Z,15.30
2023-01-08T13:35:03.042Z,15.20
2023-01-08T13:37:31.942Z,15.20
2023-01-08T13:39:59.263Z,15.50
2023-01-08T13:42:32.085Z,15.80
2023-01-08T13:45:06.114Z,16.00
2023-01-08T13:47:42.947Z,16.00
2023-01-08T13:50:24.307Z,15.90
2023-01-08T13:53:03.151Z,15.80
2023-01-08T13:55:40.280Z,16.40
2023-01-08T13:58:18.215Z,16.40
2023-01-08T14:00:48.315Z,16.20
2023-01-08T14:03:26.090Z,16.00
2023-01-08T14:06:04.956Z,15.80
2023-01-08T14:08:33.772Z,15.40
2023-01-08T14:11:03.791Z,15.30
2023-01-08T14:13:35.806Z,15.30
2023-01-08T14:16:05.912Z,15.20
2023-01-08T14:18:33.586Z,15.00
2023-01-08T14:21:00.982Z,15.00
2023-01-08T14:23:37.155Z,15.00
2023-01-08T14:26:11.491Z,15.00
2023-01-08T14:28:39.184Z,15.00
2023-01-08T14:31:22.384Z,15.00
2023-01-08T14:34:00.354Z,15.00
2023-01-08T14:36:28.215Z,15.00
2023-01-08T14:38:55.754Z,14.90
2023-01-08T14:41:55.135Z,14.80
2023-01-08T14:44:36.277Z,14.70
2023-01-08T14:47:06.477Z,14.70
2023-01-08T14:49:43.358Z,14.60
2023-01-08T14:52:25.980Z,14.60
2023-01-08T14:55:00.015Z,14.50
2023-01-08T14:57:28.305Z,14.50
2023-01-08T14:59:58.857Z,14.40
2023-01-08T15:02:27.862Z,14.30
2023-01-08T15:05:25.670Z,14.30
2023-01-08T15:08:00.401Z,14.20
2023-01-08T15:10:34.888Z,14.00
2023-01-08T15:13:04.947Z,13.80
2023-01-08T15:15:38.454Z,13.70
2023-01-08T15:18:09.359Z,13.70
2023-01-08T15:20:37.018Z,13.60
2023-01-08T15:23:04.673Z,13.50
2023-01-08T15:25:32.883Z,13.50
2023-01-08T15:28:04.699Z,13.50
2023-01-08T15:30:46.640Z,13.30
2023-01-08T15:33:26.639Z,12.90
2023-01-08T15:35:53.970Z,12.80
2023-01-08T15:38:33.658Z,12.90
2023-01-08T15:41:02.082Z,12.90
2023-01-08T15:43:30.528Z,13.00
2023-01-08T15:45:58.032Z,13.10
2023-01-08T15:48:25.884Z,13.00
2023-01-08T15:50:53.571Z,12.50
2023-01-08T15:53:24.713Z,12.30
2023-01-08T15:55:52.749Z,12.40
2023-01-08T15:58:20.880Z,12.50
2023-01-08T16:00:52.744Z,12.50
2023-01-08T16:03:25.572Z,12.50
2023-01-08T16:05:53.840Z,12.50
2023-01-08T16:08:21.059Z,12.10
2023-01-08T16:10:54.005Z,12.00
2023-01-08T16:13:21.347Z,12.10
2023-01-08T16:15:49.620Z,12.10
2023-01-08T16:18:16.867Z,11.70
2023-01-08T16:20:45.652Z,11.00
2023-01-08T16:23:13.368Z,11.00
2023-01-08T16:25:41.027Z,11.10
2023-01-08T16:28:09.145Z,11.40
2023-01-08T16:30:43.061Z,11.50
2023-01-08T16:33:17.469Z,11.70
2023-01-08T16:35:55.476Z,11.80
2023-01-08T16:38:25.123Z,11.90
2023-01-08T16:40:58.668Z,11.90
2023-01-08T16:43:29.837Z,11.70
2023-01-08T16:46:03.370Z,11.50
2023-01-08T16:48:31.575Z,11.30
2023-01-08T16:51:05.731Z,11.00
2023-01-08T16:53:35.938Z,10.80
2023-01-08T16:56:05.370Z,10.70
2023-01-08T16:58:35.068Z,10.60
2023-01-08T17:01:08.928Z,10.70
2023-01-08T17:03:37.491Z,10.90
2023-01-08T17:06:07.294Z,11.00
2023-01-08T17:08:40.206Z,11.10
2023-01-08T17:11:11.462Z,11.10
2023-01-08T17:13:40.228Z,11.10
2023-01-08T17:16:10.529Z,11.30
2023-01-08T17:18:39.394Z,11.40
2023-01-08T17:21:10.022Z,11.40
2023-01-08T17:23:37.714Z,11.40
2023-01-08T17:26:11.564Z,11.40
2023-01-08T17:28:39.529Z,11.20
2023-01-08T17:31:12.816Z,11.30
2023-01-08T17:33:40.368Z,11.50
2023-01-08T17:36:16.247Z,11.70
2023-01-08T17:38:43.837Z,11.70
2023-01-08T17:41:33.264Z,11.60
2023-01-08T17:44:06.986Z,11.50
2023-01-08T17:46:37.181Z,11.10
2023-01-08T17:49:04.925Z,11.10
2023-01-08T17:51:33.821Z,10.90
2023-01-08T17:54:01.880Z,10.80
2023-01-08T17:56:29.554Z,10.80
2023-01-08T17:58:57.475Z,11.00
2023-01-08T18:01:24.957Z,11.10
2023-01-08T18:03:53.412Z,11.20
2023-01-08T18:06:22.727Z,11.30
2023-01-08T18:08:50.301Z,11.50
2023-01-08T18:11:17.589Z,11.40
2023-01-08T18:13:45.043Z,11.10
2023-01-08T18:16:17.417Z,11.10
2023-01-08T18:18:45.070Z,11.20
2023-01-08T18:21:12.829Z,11.30
2023-01-08T18:23:41.264Z,11.10
2023-01-08T18:26:12.230Z,10.80
2023-01-08T18:28:40.029Z,10.70
2023-01-08T18:31:09.090Z,10.70
2023-01-08T18:33:38.831Z,10.90
2023-01-08T18:36:10.277Z,11.00
2023-01-08T18:38:39.734Z,11.10
2023-01-08T18:41:12.488Z,11.10
2023-01-08T18:43:41.545Z,11.10
2023-01-08T18:46:14.331Z,10.70
2023-01-08T18:48:42.214Z,10.70
2023-01-08T18:51:12.535Z,10.80
2023-01-08T18:53:41.198Z,11.00
2023-01-08T18:56:15.200Z,10.90
2023-01-08T18:58:48.783Z,10.60
2023-01-08T19:01:17.874Z,10.60
2023-01-08T19:03:46.696Z,10.30
2023-01-08T19:06:16.570Z,10.10
2023-01-08T19:08:45.312Z,10.20
2023-01-08T19:11:13.656Z,10.00
2023-01-08T19:13:41.864Z,10.10
2023-01-08T19:16:12.670Z,9.80
2023-01-08T19:18:40.802Z,9.70
2023-01-08T19:21:10.333Z,10.00
2023-01-08T19:23:37.669Z,10.20
2023-01-08T19:26:09.278Z,10.40
2023-01-08T19:28:37.188Z,10.40
2023-01-08T19:31:05.202Z,10.50
2023-01-08T19:33:32.923Z,10.20
2023-01-08T19:36:09.082Z,10.10
2023-01-08T19:38:37.013Z,9.80
2023-01-08T19:41:04.645Z,9.60
2023-01-08T19:43:44.323Z,9.70
2023-01-08T19:46:15.583Z,10.20
2023-01-08T19:48:44.520Z,10.30
2023-01-08T19:51:15.845Z,10.20
2023-01-08T19:53:48.384Z,9.80
2023-01-08T19:56:21.382Z,10.00
2023-01-08T19:58:49.651Z,10.50
2023-01-08T20:01:28.472Z,10.90
2023-01-08T20:03:59.138Z,11.10
2023-01-08T20:06:31.422Z,11.30
2023-01-08T20:09:17.885Z,11.30
2023-01-08T20:11:50.600Z,11.10
2023-01-08T20:14:21.431Z,10.80
2023-01-08T20:17:19.737Z,10.50
2023-01-08T20:19:50.342Z,10.60
2023-01-08T20:22:32.584Z,10.80
2023-01-08T20:25:16.971Z,10.40
2023-01-08T20:27:48.717Z,10.30
2023-01-08T20:30:19.667Z,10.40
2023-01-08T20:32:51.766Z,10.30
2023-01-08T20:35:22.198Z,10.40
2023-01-08T20:37:50.040Z,10.00
2023-01-08T20:40:18.256Z,10.00
2023-01-08T20:42:47.052Z,10.00
2023-01-08T20:45:15.778Z,10.00
2023-01-08T20:47:43.113Z,10.00
2023-01-08T20:50:19.991Z,10.10
2023-01-08T20:52:50.123Z,10.30
2023-01-08T20:55:18.801Z,10.40
2023-01-08T20:57:47.676Z,10.40
2023-01-08T21:00:18.003Z,10.40
2023-01-08T21:02:51.538Z,10.50
2023-01-08T21:05:29.614Z,10.60
2023-01-08T21:07:59.122Z,10.00
2023-01-08T21:10:31.049Z,10.00
2023-01-08T21:13:08.221Z,10.20
2023-01-08T21:15:40.312Z,10.40
2023-01-08T21:18:09.251Z,10.50
2023-01-08T21:20:38.666Z,10.60
2023-01-08T21:23:13.568Z,10.30
2023-01-08T21:25:44.163Z,10.40
2023-01-08T21:28:14.317Z,10.50
2023-01-08T21:30:49.074Z,10.50
2023-01-08T21:33:20.186Z,10.60
2023-01-08T21:35:50.205Z,10.60
2023-01-08T21:38:41.914Z,10.60
2023-01-08T21:41:35.068Z,10.70
2023-01-08T21:44:24.098Z,10.70
2023-01-08T21:46:52.828Z,10.80
2023-01-08T21:49:20.747Z,10.90
2023-01-08T21:52:06.419Z,10.90
2023-01-08T21:54:34.344Z,11.00
2023-01-08T21:57:01.807Z,11.10
2023-01-08T21:59:29.517Z,11.10
2023-01-08T22:01:57.912Z,10.90
2023-01-08T22:04:25.334Z,10.90
2023-01-08T22:06:55.946Z,10.80
2023-01-08T22:09:23.335Z,10.90
2023-01-08T22:11:51.172Z,10.90
2023-01-08T22:14:19.134Z,11.00
2023-01-08T22:16:46.431Z,11.10
2023-01-08T22:19:14.299Z,11.00
2023-01-08T22:21:42.701Z,11.00
2023-01-08T22:24:10.607Z,11.00
2023-01-08T22:26:38.225Z,11.10
2023-01-08T22:29:06.711Z,11.10
2023-01-08T22:31:34.995Z,11.10
2023-01-08T22:34:02.860Z,11.10
2023-01-08T22:36:32.764Z,11.10
2023-01-08T22:39:00.331Z,11.10
2023-01-08T22:41:28.977Z,11.20
2023-01-08T22:43:57.321Z,11.30
2023-01-08T22:46:26.029Z,11.20
2023-01-08T22:48:54.363Z,11.10
2023-01-08T22:51:27.547Z,10.80
2023-01-08T22:53:56.202Z,10.90
2023-01-08T22:56:24.207Z,11.00
2023-01-08T22:58:52.946Z,11.10
2023-01-08T23:01:24.571Z,11.10
2023-01-08T23:03:54.782Z,11.10
2023-01-08T23:06:24.112Z,11.30
2023-01-08T23:08:52.713Z,11.30
2023-01-08T23:11:22.604Z,11.10
2023-01-08T23:13:52.348Z,11.10
2023-01-08T23:16:24.803Z,11.10
2023-01-08T23:18:55.606Z,11.10
2023-01-08T23:21:26.377Z,11.10
2023-01-08T23:23:54.312Z,11.10
2023-01-08T23:26:28.875Z,11.10
2023-01-08T23:28:57.661Z,11.00
2023-01-08T23:31:30.262Z,11.00
2023-01-08T23:33:58.740Z,10.90
2023-01-08T23:36:27.351Z,10.80
2023-01-08T23:38:56.361Z,10.70
2023-01-08T23:41:35.230Z,10.70
2023-01-08T23:44:06.352Z,10.60
2023-01-08T23:46:34.786Z,10.60
2023-01-08T23:49:04.306Z,10.70
2023-01-08T23:51:32.983Z,10.70
2023-01-08T23:54:01.098Z,10.70
2023-01-08T23:56:28.714Z,10.70
2023-01-08T23:58:57.932Z,10.70
